sensor_id;sensor_type;location;lat;lon;timestamp;P1;durP1;ratioP1;P2;durP2;ratioP2
33930;SDS011;20215;53.130;6.408;2022-12-18T00:00:04;23.10;;;15.48;;
33930;SDS011;20215;53.130;6.408;2022-12-18T00:02:31;25.05;;;15.27;;
33930;SDS011;20215;53.130;6.408;2022-12-18T00:04:56;30.25;;;16.70;;
33930;SDS011;20215;53.130;6.408;2022-12-18T00:07:22;24.13;;;14.10;;
33930;SDS011;20215;53.130;6.408;2022-12-18T00:09:47;30.95;;;16.75;;
33930;SDS011;20215;53.130;6.408;2022-12-18T00:12:13;26.92;;;15.60;;
33930;SDS011;20215;53.130;6.408;2022-12-18T00:14:39;28.13;;;15.77;;
33930;SDS011;20215;53.130;6.408;2022-12-18T00:17:04;26.88;;;16.17;;
33930;SDS011;20215;53.130;6.408;2022-12-18T00:19:30;26.60;;;15.93;;
33930;SDS011;20215;53.130;6.408;2022-12-18T00:21:55;28.10;;;16.50;;
33930;SDS011;20215;53.130;6.408;2022-12-18T00:24:23;24.35;;;15.70;;
33930;SDS011;20215;53.130;6.408;2022-12-18T00:26:48;25.50;;;14.77;;
33930;SDS011;20215;53.130;6.408;2022-12-18T00:29:14;29.75;;;16.70;;
33930;SDS011;20215;53.130;6.408;2022-12-18T00:31:40;26.02;;;15.95;;
33930;SDS011;20215;53.130;6.408;2022-12-18T00:34:06;27.23;;;14.52;;
33930;SDS011;20215;53.130;6.408;2022-12-18T00:36:34;27.05;;;15.90;;
33930;SDS011;20215;53.130;6.408;2022-12-18T00:39:01;26.95;;;15.43;;
33930;SDS011;20215;53.130;6.408;2022-12-18T00:41:28;30.77;;;17.55;;
33930;SDS011;20215;53.130;6.408;2022-12-18T00:44:13;27.15;;;14.50;;
33930;SDS011;20215;53.130;6.408;2022-12-18T00:46:40;24.17;;;15.13;;
33930;SDS011;20215;53.130;6.408;2022-12-18T00:49:06;23.83;;;14.80;;
33930;SDS011;20215;53.130;6.408;2022-12-18T00:51:32;26.27;;;15.77;;
33930;SDS011;20215;53.130;6.408;2022-12-18T00:53:58;28.02;;;16.15;;
33930;SDS011;20215;53.130;6.408;2022-12-18T00:56:24;25.77;;;15.27;;
33930;SDS011;20215;53.130;6.408;2022-12-18T00:58:49;27.67;;;14.95;;
33930;SDS011;20215;53.130;6.408;2022-12-18T01:01:16;27.73;;;15.02;;
33930;SDS011;20215;53.130;6.408;2022-12-18T01:03:42;27.42;;;15.32;;
33930;SDS011;20215;53.130;6.408;2022-12-18T01:06:08;25.77;;;15.40;;
33930;SDS011;20215;53.130;6.408;2022-12-18T01:08:36;28.05;;;16.73;;
33930;SDS011;20215;53.130;6.408;2022-12-18T01:11:13;29.98;;;16.02;;
33930;SDS011;20215;53.130;6.408;2022-12-18T01:13:41;26.67;;;15.05;;
33930;SDS011;20215;53.130;6.408;2022-12-18T01:16:07;24.48;;;15.73;;
33930;SDS011;20215;53.130;6.408;2022-12-18T01:18:33;30.35;;;15.32;;
33930;SDS011;20215;53.130;6.408;2022-12-18T01:20:59;25.98;;;15.77;;
33930;SDS011;20215;53.130;6.408;2022-12-18T01:23:25;26.48;;;15.25;;
33930;SDS011;20215;53.130;6.408;2022-12-18T01:25:50;25.42;;;15.35;;
33930;SDS011;20215;53.130;6.408;2022-12-18T01:28:16;25.10;;;14.77;;
33930;SDS011;20215;53.130;6.408;2022-12-18T01:30:42;25.83;;;14.20;;
33930;SDS011;20215;53.130;6.408;2022-12-18T01:33:08;27.52;;;15.73;;
33930;SDS011;20215;53.130;6.408;2022-12-18T01:35:33;28.20;;;14.63;;
33930;SDS011;20215;53.130;6.408;2022-12-18T01:38:05;28.08;;;16.20;;
33930;SDS011;20215;53.130;6.408;2022-12-18T01:40:31;25.48;;;16.50;;
33930;SDS011;20215;53.130;6.408;2022-12-18T01:42:56;26.63;;;14.90;;
33930;SDS011;20215;53.130;6.408;2022-12-18T01:45:23;26.08;;;13.85;;
33930;SDS011;20215;53.130;6.408;2022-12-18T01:47:53;24.20;;;14.00;;
33930;SDS011;20215;53.130;6.408;2022-12-18T01:50:49;25.35;;;15.73;;
33930;SDS011;20215;53.130;6.408;2022-12-18T01:53:17;25.83;;;15.57;;
33930;SDS011;20215;53.130;6.408;2022-12-18T01:55:49;28.38;;;14.77;;
33930;SDS011;20215;53.130;6.408;2022-12-18T01:58:21;26.52;;;15.20;;
33930;SDS011;20215;53.130;6.408;2022-12-18T02:00:55;27.50;;;15.13;;
33930;SDS011;20215;53.130;6.408;2022-12-18T02:03:20;27.70;;;15.88;;
33930;SDS011;20215;53.130;6.408;2022-12-18T02:05:52;24.52;;;13.85;;
33930;SDS011;20215;53.130;6.408;2022-12-18T02:08:53;25.70;;;14.63;;
33930;SDS011;20215;53.130;6.408;2022-12-18T02:11:40;25.00;;;14.63;;
33930;SDS011;20215;53.130;6.408;2022-12-18T02:14:59;26.63;;;15.32;;
33930;SDS011;20215;53.130;6.408;2022-12-18T02:23:06;24.63;;;14.70;;
33930;SDS011;20215;53.130;6.408;2022-12-18T02:31:07;24.88;;;15.13;;
33930;SDS011;20215;53.130;6.408;2022-12-18T02:33:36;24.08;;;14.52;;
33930;SDS011;20215;53.130;6.408;2022-12-18T02:36:03;27.88;;;16.38;;
33930;SDS011;20215;53.130;6.408;2022-12-18T02:38:29;22.77;;;14.00;;
33930;SDS011;20215;53.130;6.408;2022-12-18T02:40:56;24.45;;;13.60;;
33930;SDS011;20215;53.130;6.408;2022-12-18T02:43:22;26.63;;;15.50;;
33930;SDS011;20215;53.130;6.408;2022-12-18T02:45:50;25.75;;;13.80;;
33930;SDS011;20215;53.130;6.408;2022-12-18T02:48:24;25.23;;;15.38;;
33930;SDS011;20215;53.130;6.408;2022-12-18T02:51:08;23.73;;;13.55;;
33930;SDS011;20215;53.130;6.408;2022-12-18T02:53:53;24.00;;;13.85;;
33930;SDS011;20215;53.130;6.408;2022-12-18T02:56:38;22.95;;;13.00;;
33930;SDS011;20215;53.130;6.408;2022-12-18T02:59:13;22.55;;;13.02;;
33930;SDS011;20215;53.130;6.408;2022-12-18T03:01:51;27.40;;;15.13;;
33930;SDS011;20215;53.130;6.408;2022-12-18T03:04:30;25.52;;;14.35;;
33930;SDS011;20215;53.130;6.408;2022-12-18T03:07:09;25.70;;;14.30;;
33930;SDS011;20215;53.130;6.408;2022-12-18T03:09:41;28.00;;;15.52;;
33930;SDS011;20215;53.130;6.408;2022-12-18T03:12:14;25.33;;;14.75;;
33930;SDS011;20215;53.130;6.408;2022-12-18T03:15:07;22.92;;;12.95;;
33930;SDS011;20215;53.130;6.408;2022-12-18T03:17:45;27.55;;;15.27;;
33930;SDS011;20215;53.130;6.408;2022-12-18T03:20:14;24.50;;;14.23;;
33930;SDS011;20215;53.130;6.408;2022-12-18T03:22:43;27.50;;;16.15;;
33930;SDS011;20215;53.130;6.408;2022-12-18T03:25:13;25.27;;;14.45;;
33930;SDS011;20215;53.130;6.408;2022-12-18T03:27:41;27.15;;;14.73;;
33930;SDS011;20215;53.130;6.408;2022-12-18T03:30:12;27.90;;;14.18;;
33930;SDS011;20215;53.130;6.408;2022-12-18T03:35:11;26.38;;;15.10;;
33930;SDS011;20215;53.130;6.408;2022-12-18T03:37:39;24.13;;;14.95;;
33930;SDS011;20215;53.130;6.408;2022-12-18T03:40:05;26.00;;;15.20;;
33930;SDS011;20215;53.130;6.408;2022-12-18T03:42:48;26.55;;;14.10;;
33930;SDS011;20215;53.130;6.408;2022-12-18T03:45:19;26.15;;;15.13;;
33930;SDS011;20215;53.130;6.408;2022-12-18T03:55:53;28.38;;;15.25;;
33930;SDS011;20215;53.130;6.408;2022-12-18T03:58:23;29.80;;;15.70;;
33930;SDS011;20215;53.130;6.408;2022-12-18T04:00:50;25.13;;;13.82;;
33930;SDS011;20215;53.130;6.408;2022-12-18T04:03:19;28.15;;;15.75;;
33930;SDS011;20215;53.130;6.408;2022-12-18T04:05:45;27.27;;;15.05;;
33930;SDS011;20215;53.130;6.408;2022-12-18T04:08:13;25.05;;;14.93;;
33930;SDS011;20215;53.130;6.408;2022-12-18T04:10:39;25.92;;;15.40;;
33930;SDS011;20215;53.130;6.408;2022-12-18T04:13:05;26.00;;;13.40;;
33930;SDS011;20215;53.130;6.408;2022-12-18T04:15:32;24.02;;;14.95;;
33930;SDS011;20215;53.130;6.408;2022-12-18T04:18:00;25.85;;;15.02;;
33930;SDS011;20215;53.130;6.408;2022-12-18T04:20:25;25.00;;;14.60;;
33930;SDS011;20215;53.130;6.408;2022-12-18T04:22:51;24.65;;;15.15;;
33930;SDS011;20215;53.130;6.408;2022-12-18T04:25:16;28.45;;;14.77;;
33930;SDS011;20215;53.130;6.408;2022-12-18T04:27:42;24.55;;;13.25;;
33930;SDS011;20215;53.130;6.408;2022-12-18T04:30:08;23.52;;;14.70;;
33930;SDS011;20215;53.130;6.408;2022-12-18T04:32:34;26.20;;;13.88;;
33930;SDS011;20215;53.130;6.408;2022-12-18T04:35:00;26.35;;;14.18;;
33930;SDS011;20215;53.130;6.408;2022-12-18T04:37:25;26.60;;;13.40;;
33930;SDS011;20215;53.130;6.408;2022-12-18T04:39:51;24.08;;;13.63;;
33930;SDS011;20215;53.130;6.408;2022-12-18T04:42:16;26.25;;;14.32;;
33930;SDS011;20215;53.130;6.408;2022-12-18T04:44:42;27.48;;;13.93;;
33930;SDS011;20215;53.130;6.408;2022-12-18T04:47:08;26.08;;;14.35;;
33930;SDS011;20215;53.130;6.408;2022-12-18T04:49:33;24.08;;;13.25;;
33930;SDS011;20215;53.130;6.408;2022-12-18T04:51:59;23.48;;;14.05;;
33930;SDS011;20215;53.130;6.408;2022-12-18T04:54:24;24.38;;;13.90;;
33930;SDS011;20215;53.130;6.408;2022-12-18T04:56:50;24.30;;;14.25;;
33930;SDS011;20215;53.130;6.408;2022-12-18T04:59:16;26.42;;;13.60;;
33930;SDS011;20215;53.130;6.408;2022-12-18T05:01:41;20.88;;;12.25;;
33930;SDS011;20215;53.130;6.408;2022-12-18T05:04:07;22.27;;;12.82;;
33930;SDS011;20215;53.130;6.408;2022-12-18T05:06:32;21.70;;;12.32;;
33930;SDS011;20215;53.130;6.408;2022-12-18T05:08:58;22.75;;;13.18;;
33930;SDS011;20215;53.130;6.408;2022-12-18T05:11:24;25.08;;;13.02;;
33930;SDS011;20215;53.130;6.408;2022-12-18T05:13:49;24.13;;;13.07;;
33930;SDS011;20215;53.130;6.408;2022-12-18T05:16:15;24.10;;;13.65;;
33930;SDS011;20215;53.130;6.408;2022-12-18T05:18:40;22.95;;;12.45;;
33930;SDS011;20215;53.130;6.408;2022-12-18T05:21:07;25.83;;;13.93;;
33930;SDS011;20215;53.130;6.408;2022-12-18T05:23:33;21.70;;;12.05;;
33930;SDS011;20215;53.130;6.408;2022-12-18T05:25:59;21.90;;;12.35;;
33930;SDS011;20215;53.130;6.408;2022-12-18T05:28:27;25.98;;;12.60;;
33930;SDS011;20215;53.130;6.408;2022-12-18T05:30:56;20.25;;;12.18;;
33930;SDS011;20215;53.130;6.408;2022-12-18T05:33:24;25.23;;;13.50;;
33930;SDS011;20215;53.130;6.408;2022-12-18T05:35:56;24.88;;;12.80;;
33930;SDS011;20215;53.130;6.408;2022-12-18T05:38:24;24.45;;;13.50;;
33930;SDS011;20215;53.130;6.408;2022-12-18T05:40:50;22.92;;;12.13;;
33930;SDS011;20215;53.130;6.408;2022-12-18T05:43:18;24.42;;;13.75;;
33930;SDS011;20215;53.130;6.408;2022-12-18T05:45:44;24.45;;;12.48;;
33930;SDS011;20215;53.130;6.408;2022-12-18T05:48:11;23.63;;;13.35;;
33930;SDS011;20215;53.130;6.408;2022-12-18T05:50:37;27.40;;;12.82;;
33930;SDS011;20215;53.130;6.408;2022-12-18T05:53:05;22.52;;;12.35;;
33930;SDS011;20215;53.130;6.408;2022-12-18T05:55:38;23.88;;;13.80;;
33930;SDS011;20215;53.130;6.408;2022-12-18T05:58:05;24.20;;;12.73;;
33930;SDS011;20215;53.130;6.408;2022-12-18T06:00:32;21.08;;;11.82;;
33930;SDS011;20215;53.130;6.408;2022-12-18T06:03:01;28.27;;;12.27;;
33930;SDS011;20215;53.130;6.408;2022-12-18T06:05:27;22.35;;;12.20;;
33930;SDS011;20215;53.130;6.408;2022-12-18T06:07:53;25.58;;;12.70;;
33930;SDS011;20215;53.130;6.408;2022-12-18T06:10:19;22.45;;;12.70;;
33930;SDS011;20215;53.130;6.408;2022-12-18T06:12:44;22.25;;;11.40;;
33930;SDS011;20215;53.130;6.408;2022-12-18T06:15:10;20.63;;;11.23;;
33930;SDS011;20215;53.130;6.408;2022-12-18T06:17:36;30.80;;;12.65;;
33930;SDS011;20215;53.130;6.408;2022-12-18T06:20:02;19.52;;;11.38;;
33930;SDS011;20215;53.130;6.408;2022-12-18T06:22:30;21.42;;;12.60;;
33930;SDS011;20215;53.130;6.408;2022-12-18T06:24:57;23.40;;;12.02;;
33930;SDS011;20215;53.130;6.408;2022-12-18T06:27:22;23.20;;;12.55;;
33930;SDS011;20215;53.130;6.408;2022-12-18T06:29:48;19.98;;;12.07;;
33930;SDS011;20215;53.130;6.408;2022-12-18T06:32:14;24.58;;;12.35;;
33930;SDS011;20215;53.130;6.408;2022-12-18T06:34:39;23.38;;;12.60;;
33930;SDS011;20215;53.130;6.408;2022-12-18T06:37:05;19.08;;;10.35;;
33930;SDS011;20215;53.130;6.408;2022-12-18T06:39:31;24.02;;;11.40;;
33930;SDS011;20215;53.130;6.408;2022-12-18T06:41:56;22.67;;;12.38;;
33930;SDS011;20215;53.130;6.408;2022-12-18T06:44:22;23.17;;;11.98;;
33930;SDS011;20215;53.130;6.408;2022-12-18T06:46:48;22.33;;;12.23;;
33930;SDS011;20215;53.130;6.408;2022-12-18T06:49:14;21.50;;;12.18;;
33930;SDS011;20215;53.130;6.408;2022-12-18T06:51:41;20.00;;;10.43;;
33930;SDS011;20215;53.130;6.408;2022-12-18T06:54:07;23.42;;;11.95;;
33930;SDS011;20215;53.130;6.408;2022-12-18T06:56:33;19.65;;;9.82;;
33930;SDS011;20215;53.130;6.408;2022-12-18T06:58:59;20.30;;;11.15;;
33930;SDS011;20215;53.130;6.408;2022-12-18T07:01:25;18.58;;;9.70;;
33930;SDS011;20215;53.130;6.408;2022-12-18T07:03:54;17.60;;;9.25;;
33930;SDS011;20215;53.130;6.408;2022-12-18T07:06:21;19.95;;;10.10;;
33930;SDS011;20215;53.130;6.408;2022-12-18T07:08:48;18.20;;;10.05;;
33930;SDS011;20215;53.130;6.408;2022-12-18T07:11:16;17.50;;;9.68;;
33930;SDS011;20215;53.130;6.408;2022-12-18T07:13:42;16.63;;;9.85;;
33930;SDS011;20215;53.130;6.408;2022-12-18T07:16:09;16.17;;;9.73;;
33930;SDS011;20215;53.130;6.408;2022-12-18T07:18:37;15.00;;;7.90;;
33930;SDS011;20215;53.130;6.408;2022-12-18T07:21:06;18.30;;;9.10;;
33930;SDS011;20215;53.130;6.408;2022-12-18T07:23:34;17.27;;;9.30;;
33930;SDS011;20215;53.130;6.408;2022-12-18T07:26:01;17.73;;;8.80;;
33930;SDS011;20215;53.130;6.408;2022-12-18T07:28:32;15.77;;;9.00;;
33930;SDS011;20215;53.130;6.408;2022-12-18T07:30:58;13.93;;;9.00;;
33930;SDS011;20215;53.130;6.408;2022-12-18T07:33:32;16.73;;;8.55;;
33930;SDS011;20215;53.130;6.408;2022-12-18T07:35:59;17.50;;;8.88;;
33930;SDS011;20215;53.130;6.408;2022-12-18T07:38:25;16.00;;;8.48;;
33930;SDS011;20215;53.130;6.408;2022-12-18T07:40:51;16.13;;;9.23;;
33930;SDS011;20215;53.130;6.408;2022-12-18T07:43:16;15.35;;;8.85;;
33930;SDS011;20215;53.130;6.408;2022-12-18T07:45:42;14.43;;;8.38;;
33930;SDS011;20215;53.130;6.408;2022-12-18T07:48:08;13.95;;;8.85;;
33930;SDS011;20215;53.130;6.408;2022-12-18T07:50:33;16.17;;;8.65;;
33930;SDS011;20215;53.130;6.408;2022-12-18T07:52:59;13.48;;;8.25;;
33930;SDS011;20215;53.130;6.408;2022-12-18T07:55:28;13.98;;;8.57;;
33930;SDS011;20215;53.130;6.408;2022-12-18T07:57:54;14.25;;;7.93;;
33930;SDS011;20215;53.130;6.408;2022-12-18T08:00:20;14.57;;;7.70;;
33930;SDS011;20215;53.130;6.408;2022-12-18T08:02:46;14.88;;;8.32;;
33930;SDS011;20215;53.130;6.408;2022-12-18T08:05:12;14.65;;;8.07;;
33930;SDS011;20215;53.130;6.408;2022-12-18T08:07:38;13.65;;;7.72;;
33930;SDS011;20215;53.130;6.408;2022-12-18T08:10:04;12.82;;;7.85;;
33930;SDS011;20215;53.130;6.408;2022-12-18T08:12:30;12.18;;;8.10;;
33930;SDS011;20215;53.130;6.408;2022-12-18T08:14:56;14.05;;;8.18;;
33930;SDS011;20215;53.130;6.408;2022-12-18T08:17:21;11.13;;;7.65;;
33930;SDS011;20215;53.130;6.408;2022-12-18T08:19:47;12.23;;;7.28;;
33930;SDS011;20215;53.130;6.408;2022-12-18T08:22:12;12.05;;;7.20;;
33930;SDS011;20215;53.130;6.408;2022-12-18T08:24:38;11.82;;;7.22;;
33930;SDS011;20215;53.130;6.408;2022-12-18T08:27:04;11.70;;;7.22;;
33930;SDS011;20215;53.130;6.408;2022-12-18T08:29:29;11.20;;;6.93;;
33930;SDS011;20215;53.130;6.408;2022-12-18T08:31:55;14.57;;;7.20;;
33930;SDS011;20215;53.130;6.408;2022-12-18T08:34:21;14.38;;;8.18;;
33930;SDS011;20215;53.130;6.408;2022-12-18T08:36:47;12.45;;;7.72;;
33930;SDS011;20215;53.130;6.408;2022-12-18T08:39:12;12.68;;;7.93;;
33930;SDS011;20215;53.130;6.408;2022-12-18T08:41:38;12.48;;;6.93;;
33930;SDS011;20215;53.130;6.408;2022-12-18T08:44:03;11.23;;;7.28;;
33930;SDS011;20215;53.130;6.408;2022-12-18T08:46:47;11.10;;;7.25;;
33930;SDS011;20215;53.130;6.408;2022-12-18T08:49:13;11.77;;;7.35;;
33930;SDS011;20215;53.130;6.408;2022-12-18T08:51:39;14.05;;;8.35;;
33930;SDS011;20215;53.130;6.408;2022-12-18T08:54:05;9.25;;;6.13;;
33930;SDS011;20215;53.130;6.408;2022-12-18T08:56:31;13.05;;;8.13;;
33930;SDS011;20215;53.130;6.408;2022-12-18T08:58:58;11.48;;;7.00;;
33930;SDS011;20215;53.130;6.408;2022-12-18T09:01:24;12.98;;;7.18;;
33930;SDS011;20215;53.130;6.408;2022-12-18T09:03:49;13.23;;;7.43;;
33930;SDS011;20215;53.130;6.408;2022-12-18T09:06:16;12.10;;;7.53;;
33930;SDS011;20215;53.130;6.408;2022-12-18T09:08:43;12.38;;;6.93;;
33930;SDS011;20215;53.130;6.408;2022-12-18T09:11:13;9.65;;;6.43;;
33930;SDS011;20215;53.130;6.408;2022-12-18T09:13:49;10.77;;;6.68;;
33930;SDS011;20215;53.130;6.408;2022-12-18T09:16:15;9.43;;;6.57;;
33930;SDS011;20215;53.130;6.408;2022-12-18T09:18:41;9.52;;;6.65;;
33930;SDS011;20215;53.130;6.408;2022-12-18T09:21:07;10.10;;;6.88;;
33930;SDS011;20215;53.130;6.408;2022-12-18T09:23:37;11.80;;;7.15;;
33930;SDS011;20215;53.130;6.408;2022-12-18T09:26:02;10.02;;;6.55;;
33930;SDS011;20215;53.130;6.408;2022-12-18T09:28:29;10.57;;;7.22;;
33930;SDS011;20215;53.130;6.408;2022-12-18T09:30:54;10.68;;;6.53;;
33930;SDS011;20215;53.130;6.408;2022-12-18T09:33:20;8.45;;;6.18;;
33930;SDS011;20215;53.130;6.408;2022-12-18T09:35:46;12.10;;;7.53;;
33930;SDS011;20215;53.130;6.408;2022-12-18T09:38:13;9.75;;;6.07;;
33930;SDS011;20215;53.130;6.408;2022-12-18T09:40:48;8.55;;;6.30;;
33930;SDS011;20215;53.130;6.408;2022-12-18T09:43:20;9.23;;;6.10;;
33930;SDS011;20215;53.130;6.408;2022-12-18T09:45:57;11.55;;;7.55;;
33930;SDS011;20215;53.130;6.408;2022-12-18T09:48:28;9.63;;;6.10;;
33930;SDS011;20215;53.130;6.408;2022-12-18T09:51:03;10.75;;;6.68;;
33930;SDS011;20215;53.130;6.408;2022-12-18T09:53:37;9.13;;;6.20;;
33930;SDS011;20215;53.130;6.408;2022-12-18T09:56:05;9.98;;;6.35;;
33930;SDS011;20215;53.130;6.408;2022-12-18T09:58:39;10.63;;;6.53;;
33930;SDS011;20215;53.130;6.408;2022-12-18T10:01:18;8.52;;;6.30;;
33930;SDS011;20215;53.130;6.408;2022-12-18T10:03:47;9.65;;;6.35;;
33930;SDS011;20215;53.130;6.408;2022-12-18T10:06:14;12.32;;;6.32;;
33930;SDS011;20215;53.130;6.408;2022-12-18T10:14:30;9.60;;;6.63;;
33930;SDS011;20215;53.130;6.408;2022-12-18T10:20:27;7.95;;;5.75;;
33930;SDS011;20215;53.130;6.408;2022-12-18T10:28:17;10.48;;;5.47;;
33930;SDS011;20215;53.130;6.408;2022-12-18T10:30:44;10.35;;;6.15;;
33930;SDS011;20215;53.130;6.408;2022-12-18T10:33:11;8.18;;;5.68;;
33930;SDS011;20215;53.130;6.408;2022-12-18T10:35:43;9.05;;;6.30;;
33930;SDS011;20215;53.130;6.408;2022-12-18T10:43:23;9.13;;;5.88;;
33930;SDS011;20215;53.130;6.408;2022-12-18T10:45:57;8.57;;;5.70;;
33930;SDS011;20215;53.130;6.408;2022-12-18T10:48:25;8.25;;;5.75;;
33930;SDS011;20215;53.130;6.408;2022-12-18T10:50:51;8.77;;;6.03;;
33930;SDS011;20215;53.130;6.408;2022-12-18T10:53:27;8.63;;;5.47;;
33930;SDS011;20215;53.130;6.408;2022-12-18T10:55:55;8.23;;;5.30;;
33930;SDS011;20215;53.130;6.408;2022-12-18T10:58:25;8.68;;;5.68;;
33930;SDS011;20215;53.130;6.408;2022-12-18T11:03:37;7.90;;;5.35;;
33930;SDS011;20215;53.130;6.408;2022-12-18T11:08:34;7.05;;;4.90;;
33930;SDS011;20215;53.130;6.408;2022-12-18T11:11:01;5.63;;;4.72;;
33930;SDS011;20215;53.130;6.408;2022-12-18T11:13:28;7.15;;;4.80;;
33930;SDS011;20215;53.130;6.408;2022-12-18T11:15:55;6.85;;;5.10;;
33930;SDS011;20215;53.130;6.408;2022-12-18T11:18:31;7.75;;;4.85;;
33930;SDS011;20215;53.130;6.408;2022-12-18T11:21:09;8.13;;;4.53;;
33930;SDS011;20215;53.130;6.408;2022-12-18T11:23:36;7.20;;;4.68;;
33930;SDS011;20215;53.130;6.408;2022-12-18T11:26:11;6.13;;;4.68;;
33930;SDS011;20215;53.130;6.408;2022-12-18T11:28:40;6.60;;;4.40;;
33930;SDS011;20215;53.130;6.408;2022-12-18T11:31:20;6.00;;;4.22;;
33930;SDS011;20215;53.130;6.408;2022-12-18T11:34:12;7.28;;;5.15;;
33930;SDS011;20215;53.130;6.408;2022-12-18T11:36:47;6.10;;;4.15;;
33930;SDS011;20215;53.130;6.408;2022-12-18T11:42:12;5.43;;;3.92;;
33930;SDS011;20215;53.130;6.408;2022-12-18T11:45:08;6.30;;;3.90;;
33930;SDS011;20215;53.130;6.408;2022-12-18T11:48:03;6.20;;;4.10;;
33930;SDS011;20215;53.130;6.408;2022-12-18T11:53:13;6.00;;;3.85;;
33930;SDS011;20215;53.130;6.408;2022-12-18T11:55:57;5.85;;;4.28;;
33930;SDS011;20215;53.130;6.408;2022-12-18T11:58:28;5.95;;;4.40;;
33930;SDS011;20215;53.130;6.408;2022-12-18T12:06:19;4.70;;;3.85;;
33930;SDS011;20215;53.130;6.408;2022-12-18T12:14:18;4.97;;;3.60;;
33930;SDS011;20215;53.130;6.408;2022-12-18T12:17:17;4.85;;;3.42;;
33930;SDS011;20215;53.130;6.408;2022-12-18T12:20:01;3.90;;;3.17;;
33930;SDS011;20215;53.130;6.408;2022-12-18T12:22:46;7.97;;;3.78;;
33930;SDS011;20215;53.130;6.408;2022-12-18T12:34:03;3.45;;;3.10;;
33930;SDS011;20215;53.130;6.408;2022-12-18T12:39:27;3.75;;;2.72;;
33930;SDS011;20215;53.130;6.408;2022-12-18T12:41:56;4.05;;;3.08;;
33930;SDS011;20215;53.130;6.408;2022-12-18T12:44:50;3.20;;;2.88;;
33930;SDS011;20215;53.130;6.408;2022-12-18T12:47:27;3.40;;;2.90;;
33930;SDS011;20215;53.130;6.408;2022-12-18T12:50:02;7.88;;;3.05;;
33930;SDS011;20215;53.130;6.408;2022-12-18T12:52:39;4.70;;;3.28;;
33930;SDS011;20215;53.130;6.408;2022-12-18T12:55:13;4.68;;;2.95;;
33930;SDS011;20215;53.130;6.408;2022-12-18T12:57:47;3.67;;;2.88;;
33930;SDS011;20215;53.130;6.408;2022-12-18T13:00:17;3.78;;;3.03;;
33930;SDS011;20215;53.130;6.408;2022-12-18T13:02:50;5.68;;;3.72;;
33930;SDS011;20215;53.130;6.408;2022-12-18T13:08:26;4.72;;;3.38;;
33930;SDS011;20215;53.130;6.408;2022-12-18T13:10:54;4.55;;;3.05;;
33930;SDS011;20215;53.130;6.408;2022-12-18T13:13:49;4.07;;;2.78;;
33930;SDS011;20215;53.130;6.408;2022-12-18T13:16:19;4.85;;;3.17;;
33930;SDS011;20215;53.130;6.408;2022-12-18T13:21:20;3.65;;;2.67;;
33930;SDS011;20215;53.130;6.408;2022-12-18T13:23:51;3.78;;;2.60;;
33930;SDS011;20215;53.130;6.408;2022-12-18T13:31:13;3.35;;;2.67;;
33930;SDS011;20215;53.130;6.408;2022-12-18T13:33:44;3.40;;;2.55;;
33930;SDS011;20215;53.130;6.408;2022-12-18T13:36:25;4.95;;;3.28;;
33930;SDS011;20215;53.130;6.408;2022-12-18T13:39:09;4.22;;;2.58;;
33930;SDS011;20215;53.130;6.408;2022-12-18T13:41:46;3.70;;;2.85;;
33930;SDS011;20215;53.130;6.408;2022-12-18T13:44:31;3.63;;;2.20;;
33930;SDS011;20215;53.130;6.408;2022-12-18T13:47:02;3.75;;;2.45;;
33930;SDS011;20215;53.130;6.408;2022-12-18T13:49:35;5.13;;;2.83;;
33930;SDS011;20215;53.130;6.408;2022-12-18T13:52:14;3.45;;;2.70;;
33930;SDS011;20215;53.130;6.408;2022-12-18T13:54:43;4.80;;;3.00;;
33930;SDS011;20215;53.130;6.408;2022-12-18T13:57:30;3.80;;;2.45;;
33930;SDS011;20215;53.130;6.408;2022-12-18T13:59:57;2.78;;;2.05;;
33930;SDS011;20215;53.130;6.408;2022-12-18T14:02:24;3.78;;;2.42;;
33930;SDS011;20215;53.130;6.408;2022-12-18T14:04:52;3.42;;;2.50;;
33930;SDS011;20215;53.130;6.408;2022-12-18T14:07:22;2.42;;;2.10;;
33930;SDS011;20215;53.130;6.408;2022-12-18T14:15:06;3.92;;;2.22;;
33930;SDS011;20215;53.130;6.408;2022-12-18T14:20:32;2.72;;;2.20;;
33930;SDS011;20215;53.130;6.408;2022-12-18T14:22:59;3.78;;;2.10;;
33930;SDS011;20215;53.130;6.408;2022-12-18T14:25:28;4.15;;;1.98;;
33930;SDS011;20215;53.130;6.408;2022-12-18T14:30:35;4.20;;;2.53;;
33930;SDS011;20215;53.130;6.408;2022-12-18T14:33:09;3.67;;;2.50;;
33930;SDS011;20215;53.130;6.408;2022-12-18T14:38:31;2.72;;;2.17;;
33930;SDS011;20215;53.130;6.408;2022-12-18T14:41:04;2.25;;;1.73;;
33930;SDS011;20215;53.130;6.408;2022-12-18T14:43:38;2.47;;;1.85;;
33930;SDS011;20215;53.130;6.408;2022-12-18T14:46:05;2.85;;;2.22;;
33930;SDS011;20215;53.130;6.408;2022-12-18T14:48:50;3.40;;;2.38;;
33930;SDS011;20215;53.130;6.408;2022-12-18T14:51:26;1.92;;;1.70;;
33930;SDS011;20215;53.130;6.408;2022-12-18T14:56:33;4.90;;;2.45;;
33930;SDS011;20215;53.130;6.408;2022-12-18T14:59:04;3.30;;;2.33;;
33930;SDS011;20215;53.130;6.408;2022-12-18T15:01:39;2.78;;;1.90;;
33930;SDS011;20215;53.130;6.408;2022-12-18T15:07:19;3.05;;;2.47;;
33930;SDS011;20215;53.130;6.408;2022-12-18T15:23:45;3.10;;;2.00;;
33930;SDS011;20215;53.130;6.408;2022-12-18T15:26:14;2.00;;;1.73;;
33930;SDS011;20215;53.130;6.408;2022-12-18T15:28:48;1.92;;;1.63;;
33930;SDS011;20215;53.130;6.408;2022-12-18T15:36:12;3.10;;;2.13;;
33930;SDS011;20215;53.130;6.408;2022-12-18T15:38:38;2.65;;;2.15;;
33930;SDS011;20215;53.130;6.408;2022-12-18T15:41:04;2.97;;;2.20;;
33930;SDS011;20215;53.130;6.408;2022-12-18T15:43:37;2.78;;;2.08;;
33930;SDS011;20215;53.130;6.408;2022-12-18T15:46:03;2.40;;;1.90;;
33930;SDS011;20215;53.130;6.408;2022-12-18T15:48:35;2.28;;;1.88;;
33930;SDS011;20215;53.130;6.408;2022-12-18T15:51:08;2.58;;;2.38;;
33930;SDS011;20215;53.130;6.408;2022-12-18T15:53:38;4.10;;;2.63;;
33930;SDS011;20215;53.130;6.408;2022-12-18T15:56:04;3.13;;;2.30;;
33930;SDS011;20215;53.130;6.408;2022-12-18T15:58:53;2.83;;;2.15;;
33930;SDS011;20215;53.130;6.408;2022-12-18T16:01:19;4.80;;;2.42;;
33930;SDS011;20215;53.130;6.408;2022-12-18T16:03:47;2.72;;;2.03;;
33930;SDS011;20215;53.130;6.408;2022-12-18T16:06:13;3.60;;;2.30;;
33930;SDS011;20215;53.130;6.408;2022-12-18T16:08:38;3.17;;;2.30;;
33930;SDS011;20215;53.130;6.408;2022-12-18T16:11:04;3.78;;;2.60;;
33930;SDS011;20215;53.130;6.408;2022-12-18T16:13:33;3.80;;;2.30;;
33930;SDS011;20215;53.130;6.408;2022-12-18T16:15:59;3.22;;;2.22;;
33930;SDS011;20215;53.130;6.408;2022-12-18T16:18:24;4.70;;;2.45;;
33930;SDS011;20215;53.130;6.408;2022-12-18T16:20:50;4.10;;;2.60;;
33930;SDS011;20215;53.130;6.408;2022-12-18T16:23:15;2.92;;;2.58;;
33930;SDS011;20215;53.130;6.408;2022-12-18T16:25:41;2.92;;;2.13;;
33930;SDS011;20215;53.130;6.408;2022-12-18T16:28:07;3.25;;;2.20;;
33930;SDS011;20215;53.130;6.408;2022-12-18T16:30:32;3.13;;;2.63;;
33930;SDS011;20215;53.130;6.408;2022-12-18T16:32:58;3.50;;;2.63;;
33930;SDS011;20215;53.130;6.408;2022-12-18T16:35:24;2.88;;;2.25;;
33930;SDS011;20215;53.130;6.408;2022-12-18T16:37:51;4.07;;;2.95;;
33930;SDS011;20215;53.130;6.408;2022-12-18T16:40:17;2.88;;;2.35;;
33930;SDS011;20215;53.130;6.408;2022-12-18T16:42:44;3.25;;;2.65;;
33930;SDS011;20215;53.130;6.408;2022-12-18T16:45:11;3.70;;;2.70;;
33930;SDS011;20215;53.130;6.408;2022-12-18T16:47:39;3.53;;;2.63;;
33930;SDS011;20215;53.130;6.408;2022-12-18T16:50:05;2.85;;;2.20;;